Time;durP1;ratioP1;P1;durP2;ratioP2;P2;SDS_P1;SDS_P2;PMS_P1;PMS_P2;Temp;Humidity;BMP_temperature;BMP_pressure;BME280_temperature;BME280_humidity;BME280_pressure;Samples;Min_cycle;Max_cycle;Signal;HPM_P1;HPM_P2
2022/06/04 00:02:20;;;;;;;5.72;1.33;;;;;;;;;;4818484;29;20085;-72
2022/06/04 00:04:50;;;;;;;2.65;1.60;;;;;;;;;;5149614;23;20050;-72
2022/06/04 00:07:20;;;;;;;8.60;1.55;;;;;;;;;;4798964;29;20059;-70
2022/06/04 00:15:48;;;;;;;2.05;1.30;;;;;;;;;;4745313;30;20057;-73
2022/06/04 00:18:20;;;;;;;6.18;1.90;;;;;;;;;;4794004;29;20431;-72
2022/06/04 00:20:51;;;;;;;1.65;1.30;;;;;;;;;;4802362;29;20066;-73
2022/06/04 00:23:22;;;;;;;7.18;1.60;;;;;;;;;;4802422;29;20051;-72
2022/06/04 00:25:55;;;;;;;10.02;1.58;;;;;;;;;;4799952;29;20059;-71
2022/06/04 00:28:27;;;;;;;3.90;1.70;;;;;;;;;;4801322;29;20070;-74
2022/06/04 00:30:57;;;;;;;;;;;;;;;;;;4802267;29;20058;-74
2022/06/04 00:33:28;;;;;;;2.35;1.40;;;;;;;;;;4801364;29;19936;-73
2022/06/04 00:36:00;;;;;;;2.55;1.70;;;;;;;;;;4800574;29;20776;-73
2022/06/04 00:38:32;;;;;;;8.07;1.88;;;;;;;;;;4801453;29;20051;-71
2022/06/04 00:41:07;;;;;;;7.47;2.92;;;;;;;;;;4800576;29;20081;-71
2022/06/04 00:44:21;;;;;;;9.18;3.35;;;;;;;;;;4802529;29;20054;-72
2022/06/04 00:46:54;;;;;;;13.68;3.38;;;;;;;;;;4775645;29;20504;-73
2022/06/04 00:49:24;;;;;;;5.50;1.95;;;;;;;;;;4801862;29;20441;-71
2022/06/04 00:51:54;;;;;;;4.72;1.10;;;;;;;;;;4801388;29;20042;-72
2022/06/04 00:54:24;;;;;;;3.47;1.27;;;;;;;;;;4801222;29;20051;-72
2022/06/04 00:57:16;;;;;;;10.68;2.38;;;;;;;;;;4801074;29;20415;-70
2022/06/04 01:00:08;;;;;;;6.60;1.00;;;;;;;;;;4784858;29;20067;-72
2022/06/04 01:02:53;;;;;;;6.38;1.27;;;;;;;;;;4801371;29;20050;-71
2022/06/04 01:05:36;;;;;;;3.08;1.10;;;;;;;;;;4800704;29;20515;-74
2022/06/04 01:08:23;;;;;;;6.07;0.93;;;;;;;;;;4800680;29;20047;-74
2022/06/04 01:11:02;;;;;;;4.20;1.08;;;;;;;;;;4801452;29;20384;-71
2022/06/04 01:13:59;;;;;;;3.88;1.20;;;;;;;;;;4801464;29;20053;-71
2022/06/04 01:16:32;;;;;;;3.75;1.42;;;;;;;;;;4801191;29;20077;-72
2022/06/04 01:19:26;;;;;;;4.82;1.67;;;;;;;;;;4801584;29;20581;-74
2022/06/04 01:22:12;;;;;;;6.38;1.40;;;;;;;;;;4800717;29;20527;-74
2022/06/04 01:25:07;;;;;;;1.40;1.30;;;;;;;;;;4799484;29;20420;-71
2022/06/04 01:27:45;;;;;;;8.77;1.55;;;;;;;;;;4800788;29;20062;-71
2022/06/04 01:30:25;;;;;;;4.65;1.38;;;;;;;;;;4798706;29;20051;-72
2022/06/04 01:33:03;;;;;;;8.07;1.25;;;;;;;;;;4782923;29;20062;-73
2022/06/04 01:36:10;;;;;;;3.50;1.13;;;;;;;;;;4800441;29;20058;-71
2022/06/04 01:38:46;;;;;;;5.57;1.00;;;;;;;;;;4800487;29;20063;-72
2022/06/04 01:41:39;;;;;;;6.10;0.98;;;;;;;;;;4800900;29;20046;-74
2022/06/04 01:44:13;;;;;;;4.00;1.30;;;;;;;;;;4800707;29;20051;-71
2022/06/04 01:46:48;;;;;;;6.07;1.17;;;;;;;;;;4800270;29;20546;-73
2022/06/04 01:49:33;;;;;;;4.65;0.80;;;;;;;;;;4799999;29;20130;-71
2022/06/04 01:52:15;;;;;;;4.82;0.88;;;;;;;;;;4800657;29;20540;-73
2022/06/04 01:54:50;;;;;;;;;;;;;;;;;;4801383;29;20058;-70
2022/06/04 01:57:35;;;;;;;29.17;3.80;;;;;;;;;;4800127;29;20423;-72
2022/06/04 02:00:12;;;;;;;8.13;2.63;;;;;;;;;;4800413;29;20047;-72
2022/06/04 02:03:03;;;;;;;5.35;1.98;;;;;;;;;;4800508;29;20062;-73
2022/06/04 02:05:37;;;;;;;;;;;;;;;;;;4781200;30;20059;-72
2022/06/04 02:08:09;;;;;;;6.93;1.70;;;;;;;;;;4783190;30;20497;-72
2022/06/04 02:10:55;;;;;;;7.57;1.30;;;;;;;;;;4782102;30;20051;-72
2022/06/04 02:13:25;;;;;;;2.33;0.95;;;;;;;;;;4782276;30;20066;-74
2022/06/04 02:16:03;;;;;;;4.30;1.05;;;;;;;;;;4782208;30;20056;-75
2022/06/04 02:18:34;;;;;;;1.00;0.77;;;;;;;;;;4781907;30;20059;-71
2022/06/04 02:21:04;;;;;;;5.63;1.00;;;;;;;;;;4782005;30;20063;-71
2022/06/04 02:23:35;;;;;;;1.65;0.80;;;;;;;;;;4782061;30;20400;-72
2022/06/04 02:26:06;;;;;;;1.48;0.90;;;;;;;;;;4782353;30;20059;-73
2022/06/04 02:28:36;;;;;;;2.08;1.15;;;;;;;;;;4781610;30;20066;-73
2022/06/04 02:31:11;;;;;;;5.45;1.23;;;;;;;;;;4781986;30;20522;-74
2022/06/04 02:34:22;;;;;;;6.45;1.35;;;;;;;;;;4781715;30;20059;-74
2022/06/04 02:37:16;;;;;;;6.87;1.00;;;;;;;;;;4781985;30;20050;-72
2022/06/04 02:40:15;;;;;;;4.15;0.82;;;;;;;;;;4782015;30;20289;-71
2022/06/04 02:42:55;;;;;;;4.22;1.00;;;;;;;;;;4781856;30;20047;-73
2022/06/04 02:45:48;;;;;;;5.82;0.93;;;;;;;;;;4781268;30;20054;-73
2022/06/04 02:48:26;;;;;;;1.95;0.82;;;;;;;;;;4781427;30;20059;-73
2022/06/04 02:51:04;;;;;;;2.33;0.80;;;;;;;;;;4781870;30;20869;-73
2022/06/04 02:53:35;;;;;;;1.05;0.80;;;;;;;;;;4781043;30;20051;-71
2022/06/04 02:56:20;;;;;;;3.60;0.88;;;;;;;;;;4781708;30;20070;-71
2022/06/04 02:58:55;;;;;;;2.13;0.80;;;;;;;;;;4780206;30;20629;-70
2022/06/04 03:01:27;;;;;;;3.35;0.80;;;;;;;;;;4782228;30;20047;-73
2022/06/04 03:03:58;;;;;;;3.10;0.90;;;;;;;;;;4781722;30;20051;-72
2022/06/04 03:06:32;;;;;;;3.45;0.98;;;;;;;;;;4795649;29;20541;-74
2022/06/04 03:09:04;;;;;;;;;;;;;;;;;;4799031;29;20055;-70
2022/06/04 03:11:56;;;;;;;2.75;0.73;;;;;;;;;;4799335;29;19929;-71
2022/06/04 03:14:26;;;;;;;1.38;0.70;;;;;;;;;;4799216;29;20415;-73
2022/06/04 03:16:56;;;;;;;4.38;1.02;;;;;;;;;;4799148;29;20061;-74
2022/06/04 03:19:26;;;;;;;1.33;0.65;;;;;;;;;;4798026;29;20059;-73
2022/06/04 03:21:55;;;;;;;2.13;0.80;;;;;;;;;;4799732;29;20515;-70
2022/06/04 03:24:26;;;;;;;1.88;0.63;;;;;;;;;;4799378;29;20058;-71
2022/06/04 03:26:56;;;;;;;5.78;0.93;;;;;;;;;;4796993;29;20065;-75
2022/06/04 03:29:25;;;;;;;4.78;0.95;;;;;;;;;;4799031;29;20055;-74
2022/06/04 03:31:56;;;;;;;3.20;0.98;;;;;;;;;;4798913;29;20057;-72
2022/06/04 03:34:26;;;;;;;6.25;1.10;;;;;;;;;;4799448;29;20051;-74
2022/06/04 03:36:55;;;;;;;1.83;0.85;;;;;;;;;;4782994;29;20062;-71
2022/06/04 03:39:25;;;;;;;1.45;0.60;;;;;;;;;;4799213;29;20043;-75
2022/06/04 03:41:55;;;;;;;3.42;0.95;;;;;;;;;;4799059;29;20063;-72
2022/06/04 03:44:25;;;;;;;5.93;0.93;;;;;;;;;;4798686;29;20817;-72
2022/06/04 03:46:55;;;;;;;2.22;0.60;;;;;;;;;;4798685;29;20051;-74
2022/06/04 03:49:26;;;;;;;1.42;0.70;;;;;;;;;;4799085;29;20055;-74
2022/06/04 03:51:56;;;;;;;5.10;0.55;;;;;;;;;;4799229;29;20062;-74
2022/06/04 04:00:09;;;;;;;4.88;0.60;;;;;;;;;;4799146;29;20046;-73
2022/06/04 04:02:48;;;;;;;1.75;0.57;;;;;;;;;;4799032;29;20047;-73
2022/06/04 04:05:22;;;;;;;2.40;0.63;;;;;;;;;;4798340;29;20088;-71
2022/06/04 04:07:54;;;;;;;4.00;0.57;;;;;;;;;;4798312;29;20066;-74
2022/06/04 04:10:27;;;;;;;1.55;0.40;;;;;;;;;;4798697;29;20050;-74
2022/06/04 04:12:58;;;;;;;5.50;0.50;;;;;;;;;;4801493;29;20055;-73
2022/06/04 04:15:29;;;;;;;1.73;0.52;;;;;;;;;;4800968;29;20063;-73
2022/06/04 04:17:59;;;;;;;3.90;0.50;;;;;;;;;;4802280;29;20499;-71
2022/06/04 04:20:31;;;;;;;4.88;0.50;;;;;;;;;;4802481;29;20518;-73
2022/06/04 04:23:04;;;;;;;4.30;0.52;;;;;;;;;;4801798;29;20507;-72
2022/06/04 04:25:36;;;;;;;1.58;0.55;;;;;;;;;;4802563;29;20054;-72
2022/06/04 04:28:06;;;;;;;4.18;0.75;;;;;;;;;;4801727;29;20054;-71
2022/06/04 04:30:37;;;;;;;5.40;0.73;;;;;;;;;;4801409;29;20070;-73
2022/06/04 04:33:07;;;;;;;2.28;0.60;;;;;;;;;;4801702;29;20074;-72
2022/06/04 04:35:37;;;;;;;2.45;0.60;;;;;;;;;;4801591;29;20058;-71
2022/06/04 04:38:07;;;;;;;6.22;0.68;;;;;;;;;;4802156;29;20403;-72
2022/06/04 04:40:37;;;;;;;3.53;0.90;;;;;;;;;;4801216;29;20055;-71
2022/06/04 04:43:07;;;;;;;10.27;0.77;;;;;;;;;;4801388;29;20510;-71
2022/06/04 04:45:37;;;;;;;10.35;0.68;;;;;;;;;;4801624;29;20055;-71
2022/06/04 04:48:07;;;;;;;2.00;0.57;;;;;;;;;;4801898;29;20054;-73
2022/06/04 04:50:40;;;;;;;8.13;1.00;;;;;;;;;;4801544;29;20059;-72
2022/06/04 04:53:12;;;;;;;5.05;0.80;;;;;;;;;;4800959;29;20537;-72
2022/06/04 04:55:46;;;;;;;8.45;1.00;;;;;;;;;;4801375;29;20515;-73
2022/06/04 04:58:17;;;;;;;5.70;0.82;;;;;;;;;;4801056;29;20054;-72
2022/06/04 05:00:47;;;;;;;7.28;1.02;;;;;;;;;;4801039;29;20051;-72
2022/06/04 05:03:17;;;;;;;5.57;0.75;;;;;;;;;;4800781;29;20511;-73
2022/06/04 05:05:56;;;;;;;3.80;0.73;;;;;;;;;;4801032;29;20489;-71
2022/06/04 05:08:26;;;;;;;2.97;0.90;;;;;;;;;;4784400;29;20066;-70
2022/06/04 05:10:56;;;;;;;4.57;1.05;;;;;;;;;;4800914;29;20055;-71
2022/06/04 05:13:26;;;;;;;4.15;0.73;;;;;;;;;;4800569;29;20887;-72
2022/06/04 05:15:55;;;;;;;1.58;0.60;;;;;;;;;;4800289;29;20050;-71
2022/06/04 05:18:28;;;;;;;7.93;1.17;;;;;;;;;;4800996;29;20077;-71
2022/06/04 05:21:11;;;;;;;5.03;0.73;;;;;;;;;;4800931;29;20526;-71
2022/06/04 05:23:41;;;;;;;10.07;0.80;;;;;;;;;;4799652;29;20051;-71
2022/06/04 05:26:11;;;;;;;5.53;0.95;;;;;;;;;;4800259;29;20046;-71
2022/06/04 05:28:42;;;;;;;4.32;0.85;;;;;;;;;;4800278;29;20054;-71
2022/06/04 05:31:13;;;;;;;2.65;0.90;;;;;;;;;;4801233;29;20515;-72
2022/06/04 05:33:43;;;;;;;3.47;0.88;;;;;;;;;;4800886;29;20061;-73
2022/06/04 05:36:14;;;;;;;4.50;0.75;;;;;;;;;;4801054;29;20059;-72
2022/06/04 05:38:43;;;;;;;2.35;0.73;;;;;;;;;;4800188;29;20055;-73
2022/06/04 05:41:14;;;;;;;1.67;0.73;;;;;;;;;;4800384;29;20656;-71
2022/06/04 05:43:44;;;;;;;1.90;1.05;;;;;;;;;;4800322;29;20058;-74
2022/06/04 05:46:15;;;;;;;3.40;0.70;;;;;;;;;;4800985;29;20051;-71
2022/06/04 05:48:47;;;;;;;3.42;0.70;;;;;;;;;;4800337;29;20058;-73
2022/06/04 05:51:20;;;;;;;2.22;0.70;;;;;;;;;;4800408;29;20417;-71
2022/06/04 05:53:52;;;;;;;1.50;0.55;;;;;;;;;;4800263;29;20050;-73
2022/06/04 05:56:27;;;;;;;1.17;0.70;;;;;;;;;;4800352;29;20051;-74
2022/06/04 05:59:04;;;;;;;4.10;0.77;;;;;;;;;;4800498;29;20058;-73
2022/06/04 06:01:35;;;;;;;3.13;0.90;;;;;;;;;;4800204;29;20062;-72
2022/06/04 06:04:07;;;;;;;13.87;1.30;;;;;;;;;;4800882;29;20384;-72
2022/06/04 06:06:41;;;;;;;32.42;1.23;;;;;;;;;;4800366;29;20435;-72
2022/06/04 06:09:13;;;;;;;151.68;4.63;;;;;;;;;;4800353;29;20047;-73
2022/06/04 06:11:44;;;;;;;117.10;2.83;;;;;;;;;;4800272;29;20527;-72
2022/06/04 06:14:16;;;;;;;70.35;2.20;;;;;;;;;;4800174;29;20141;-71
2022/06/04 06:16:48;;;;;;;71.18;2.80;;;;;;;;;;4800283;29;20047;-72
2022/06/04 06:19:20;;;;;;;132.98;3.80;;;;;;;;;;4800207;29;20511;-73
2022/06/04 06:21:51;;;;;;;163.30;6.68;;;;;;;;;;4800364;29;20991;-73
2022/06/04 06:24:21;;;;;;;192.60;5.03;;;;;;;;;;4784439;29;20066;-73
2022/06/04 06:26:57;;;;;;;133.80;4.05;;;;;;;;;;4799975;29;20066;-73
2022/06/04 06:29:30;;;;;;;53.25;2.85;;;;;;;;;;4800430;29;20066;-72
2022/06/04 06:32:01;;;;;;;90.85;3.63;;;;;;;;;;4800684;29;20061;-73
2022/06/04 06:34:32;;;;;;;111.18;3.60;;;;;;;;;;4783117;29;20065;-72
2022/06/04 06:37:02;;;;;;;87.35;3.35;;;;;;;;;;4800138;29;20047;-73
2022/06/04 06:39:32;;;;;;;21.48;2.78;;;;;;;;;;4800026;29;20054;-72
2022/06/04 06:42:02;;;;;;;16.95;3.30;;;;;;;;;;4783122;29;20061;-73
2022/06/04 06:44:52;;;;;;;41.58;2.53;;;;;;;;;;4783592;29;20069;-72
2022/06/04 06:47:23;;;;;;;21.27;2.13;;;;;;;;;;4799139;29;20054;-72
2022/06/04 06:49:53;;;;;;;14.57;2.42;;;;;;;;;;4782588;29;20054;-74
2022/06/04 06:52:23;;;;;;;2.38;1.55;;;;;;;;;;4799637;29;20053;-72
2022/06/04 06:54:53;;;;;;;11.10;1.75;;;;;;;;;;4799269;29;20050;-73
2022/06/04 06:57:22;;;;;;;5.10;1.48;;;;;;;;;;4799396;29;20529;-70
2022/06/04 06:59:54;;;;;;;10.27;1.70;;;;;;;;;;4799274;29;20058;-71
2022/06/04 07:02:24;;;;;;;1.55;1.45;;;;;;;;;;4799145;29;20061;-73
2022/06/04 07:04:53;;;;;;;4.85;1.75;;;;;;;;;;4799112;29;20523;-71
2022/06/04 07:07:24;;;;;;;9.52;1.70;;;;;;;;;;4798799;29;20058;-73
2022/06/04 07:09:54;;;;;;;1.85;1.75;;;;;;;;;;4799146;29;20051;-72
2022/06/04 07:12:25;;;;;;;4.20;1.63;;;;;;;;;;4799220;29;20499;-72
2022/06/04 07:14:56;;;;;;;1.95;1.65;;;;;;;;;;4798987;29;20058;-73
2022/06/04 07:17:27;;;;;;;1.85;1.67;;;;;;;;;;4799293;29;20058;-72
2022/06/04 07:19:56;;;;;;;2.25;1.77;;;;;;;;;;4799231;29;20138;-74
2022/06/04 07:22:26;;;;;;;12.23;1.90;;;;;;;;;;4798787;29;20055;-72
2022/06/04 07:24:57;;;;;;;72.50;3.10;;;;;;;;;;4799039;29;20055;-71
2022/06/04 07:27:27;;;;;;;29.63;2.65;;;;;;;;;;4799229;29;20503;-72
2022/06/04 07:29:56;;;;;;;58.75;2.88;;;;;;;;;;4798386;29;20435;-74
2022/06/04 07:32:26;;;;;;;43.08;3.83;;;;;;;;;;4798894;29;20050;-72
2022/06/04 07:34:56;;;;;;;14.43;2.33;;;;;;;;;;4797495;29;20065;-72
2022/06/04 07:37:27;;;;;;;109.10;4.63;;;;;;;;;;4798399;29;20507;-71
2022/06/04 07:39:57;;;;;;;90.70;3.35;;;;;;;;;;4798537;29;20514;-71
2022/06/04 07:42:27;;;;;;;42.17;2.53;;;;;;;;;;4798823;29;20523;-73
2022/06/04 07:44:57;;;;;;;98.90;3.78;;;;;;;;;;4798446;29;20404;-72
2022/06/04 07:47:27;;;;;;;58.13;2.53;;;;;;;;;;4801436;29;20542;-71
2022/06/04 07:49:57;;;;;;;54.53;2.50;;;;;;;;;;4802713;29;20070;-71
2022/06/04 07:52:27;;;;;;;42.20;2.93;;;;;;;;;;4802795;29;20519;-74
2022/06/04 07:54:58;;;;;;;38.58;2.10;;;;;;;;;;4786180;29;20323;-72
2022/06/04 07:57:27;;;;;;;4.03;1.30;;;;;;;;;;4801929;29;20070;-73
2022/06/04 07:59:57;;;;;;;26.13;1.73;;;;;;;;;;4785451;29;20431;-71
2022/06/04 08:02:28;;;;;;;96.63;2.95;;;;;;;;;;4801797;29;20062;-73
2022/06/04 08:04:58;;;;;;;55.25;2.15;;;;;;;;;;4801986;29;20054;-72
2022/06/04 08:07:27;;;;;;;19.50;1.50;;;;;;;;;;4801686;29;20422;-71
2022/06/04 08:09:58;;;;;;;27.08;1.73;;;;;;;;;;4802006;29;20047;-71
2022/06/04 08:12:31;;;;;;;176.18;4.45;;;;;;;;;;4802038;29;20632;-71
2022/06/04 08:15:03;;;;;;;93.72;3.05;;;;;;;;;;4801653;29;20059;-72
2022/06/04 08:17:33;;;;;;;61.28;2.83;;;;;;;;;;4802400;29;20686;-72
2022/06/04 08:20:03;;;;;;;63.95;1.88;;;;;;;;;;4801568;29;20069;-73
2022/06/04 08:22:33;;;;;;;73.97;2.53;;;;;;;;;;4801886;29;20406;-73
2022/06/04 08:25:03;;;;;;;73.93;2.35;;;;;;;;;;4785718;29;20065;-71
2022/06/04 08:27:33;;;;;;;19.80;1.17;;;;;;;;;;4801223;29;20054;-71
2022/06/04 08:30:03;;;;;;;42.30;1.60;;;;;;;;;;4801530;29;20051;-71
2022/06/04 08:32:33;;;;;;;11.20;1.20;;;;;;;;;;4801640;29;20062;-74
2022/06/04 08:35:04;;;;;;;7.22;1.00;;;;;;;;;;4802019;29;20496;-71
2022/06/04 08:37:34;;;;;;;24.20;1.60;;;;;;;;;;4801758;29;20439;-72
2022/06/04 08:40:04;;;;;;;15.80;1.42;;;;;;;;;;4800624;29;20538;-71
2022/06/04 08:42:51;;;;;;;14.20;1.00;;;;;;;;;;4801904;29;20692;-71
2022/06/04 08:45:21;;;;;;;10.25;1.10;;;;;;;;;;4801517;29;20058;-71
2022/06/04 08:47:53;;;;;;;14.15;1.35;;;;;;;;;;4801448;29;20422;-72
2022/06/04 08:50:31;;;;;;;8.70;1.35;;;;;;;;;;4801163;29;20444;-72
2022/06/04 08:53:04;;;;;;;1.38;1.20;;;;;;;;;;4800821;29;20074;-73
2022/06/04 08:59:19;;;;;;;0.85;0.85;;;;;;;;;;4800830;29;20055;-72
2022/06/04 09:01:57;;;;;;;1.38;0.70;;;;;;;;;;4785011;29;20530;-72
2022/06/04 09:05:00;;;;;;;0.63;0.63;;;;;;;;;;4801353;29;20069;-72
2022/06/04 09:07:37;;;;;;;0.70;0.70;;;;;;;;;;4763179;30;20074;-72
2022/06/04 09:10:25;;;;;;;1.15;0.60;;;;;;;;;;4783130;30;20059;-70
2022/06/04 09:13:00;;;;;;;0.70;0.70;;;;;;;;;;4782877;30;20055;-72
2022/06/04 09:15:33;;;;;;;0.88;0.60;;;;;;;;;;4782131;30;20066;-70
2022/06/04 09:18:21;;;;;;;0.60;0.60;;;;;;;;;;4781966;30;20051;-73
2022/06/04 09:20:56;;;;;;;0.77;0.63;;;;;;;;;;4783356;30;20078;-73
2022/06/04 09:23:36;;;;;;;0.50;0.50;;;;;;;;;;4782815;30;20043;-72
2022/06/04 09:26:42;;;;;;;0.57;0.57;;;;;;;;;;4782948;30;20043;-70
2022/06/04 09:29:28;;;;;;;1.15;0.82;;;;;;;;;;4774960;30;20059;-71
2022/06/04 09:32:44;;;;;;;0.60;0.60;;;;;;;;;;4782892;30;20514;-72
2022/06/04 09:35:21;;;;;;;1.27;0.60;;;;;;;;;;4762323;30;20048;-72
2022/06/04 09:37:52;;;;;;;1.17;0.65;;;;;;;;;;4782446;30;20067;-72
2022/06/04 09:40:31;;;;;;;0.70;0.70;;;;;;;;;;4781983;30;20054;-72
2022/06/04 09:43:14;;;;;;;0.63;0.63;;;;;;;;;;4781515;30;20066;-71
2022/06/04 09:46:07;;;;;;;1.33;0.70;;;;;;;;;;4781589;30;20051;-74
2022/06/04 09:48:48;;;;;;;0.75;0.70;;;;;;;;;;4781779;30;20082;-72
2022/06/04 09:51:23;;;;;;;0.80;0.80;;;;;;;;;;4781918;30;20060;-71
2022/06/04 09:54:02;;;;;;;1.63;0.88;;;;;;;;;;4782353;30;20531;-72
2022/06/04 09:56:37;;;;;;;3.92;1.08;;;;;;;;;;4782213;30;20055;-71
2022/06/04 09:59:28;;;;;;;5.40;1.02;;;;;;;;;;4782414;30;20062;-73
2022/06/04 10:02:11;;;;;;;1.58;1.00;;;;;;;;;;4782264;30;20424;-71
2022/06/04 10:04:45;;;;;;;3.83;1.00;;;;;;;;;;4766667;30;20059;-72
2022/06/04 10:07:18;;;;;;;1.50;0.93;;;;;;;;;;4782283;30;20055;-70
2022/06/04 10:09:59;;;;;;;4.55;1.38;;;;;;;;;;4765285;30;20515;-71
2022/06/04 10:15:34;;;;;;;5.63;1.80;;;;;;;;;;4782071;30;20059;-73
2022/06/04 10:18:19;;;;;;;14.25;2.47;;;;;;;;;;4782074;30;20280;-70
2022/06/04 10:21:17;;;;;;;70.70;2.83;;;;;;;;;;4781941;30;20072;-73
2022/06/04 10:23:50;;;;;;;85.60;3.03;;;;;;;;;;4764683;30;20055;-75
2022/06/04 10:26:42;;;;;;;32.42;2.03;;;;;;;;;;4781585;30;20047;-73
2022/06/04 10:29:24;;;;;;;30.65;2.60;;;;;;;;;;4780623;30;20059;-72
2022/06/04 10:32:31;;;;;;;41.30;4.10;;;;;;;;;;4765449;30;20519;-71
2022/06/04 10:35:23;;;;;;;65.85;2.97;;;;;;;;;;4766257;30;20070;-71
2022/06/04 10:38:03;;;;;;;55.03;2.88;;;;;;;;;;4780284;30;20543;-71
2022/06/04 10:41:14;;;;;;;111.68;4.70;;;;;;;;;;4780801;30;20048;-71
2022/06/04 10:44:32;;;;;;;23.33;2.55;;;;;;;;;;4780495;30;20047;-71
2022/06/04 10:47:21;;;;;;;20.48;2.35;;;;;;;;;;4779878;30;20052;-72
2022/06/04 10:50:17;;;;;;;99.38;3.90;;;;;;;;;;4781244;30;20055;-71
2022/06/04 10:53:07;;;;;;;81.18;2.90;;;;;;;;;;4781677;30;20527;-72
2022/06/04 10:55:45;;;;;;;102.90;4.22;;;;;;;;;;4778318;30;20063;-72
2022/06/04 10:58:42;;;;;;;43.53;2.70;;;;;;;;;;4782110;30;20100;-73
2022/06/04 11:01:15;;;;;;;55.00;4.57;;;;;;;;;;4781556;30;20051;-71
2022/06/04 11:04:07;;;;;;;56.75;4.75;;;;;;;;;;4781302;30;20055;-73
2022/06/04 11:06:42;;;;;;;47.60;3.40;;;;;;;;;;4778940;29;20073;-72
2022/06/04 11:09:21;;;;;;;58.88;3.63;;;;;;;;;;4799007;29;20119;-72
2022/06/04 11:12:03;;;;;;;79.43;3.50;;;;;;;;;;4799550;29;20515;-71
2022/06/04 11:14:45;;;;;;;95.07;2.90;;;;;;;;;;4799116;29;20055;-73
2022/06/04 11:17:22;;;;;;;273.50;6.38;;;;;;;;;;4799636;29;20054;-74
2022/06/04 11:19:55;;;;;;;219.77;6.57;;;;;;;;;;4799997;29;20507;-74
2022/06/04 11:22:37;;;;;;;83.93;3.85;;;;;;;;;;4802065;29;20061;-71
2022/06/04 11:25:24;;;;;;;59.30;2.50;;;;;;;;;;4785973;29;20055;-75
2022/06/04 11:28:00;;;;;;;93.45;2.80;;;;;;;;;;4786086;29;20419;-73
2022/06/04 11:30:43;;;;;;;75.25;2.97;;;;;;;;;;4802747;29;20054;-72
2022/06/04 11:33:34;;;;;;;37.03;2.78;;;;;;;;;;4802568;29;20813;-71
2022/06/04 11:36:17;;;;;;;41.97;1.70;;;;;;;;;;4802939;29;20050;-71
2022/06/04 11:39:10;;;;;;;40.15;1.75;;;;;;;;;;4803159;29;20055;-72
2022/06/04 11:42:10;;;;;;;9.27;1.20;;;;;;;;;;4766275;29;20070;-72
2022/06/04 11:45:31;;;;;;;48.67;3.95;;;;;;;;;;4760168;29;20535;-71
2022/06/04 11:48:30;;;;;;;20.90;1.70;;;;;;;;;;4796666;29;20062;-72
2022/06/04 11:51:40;;;;;;;5.72;1.85;;;;;;;;;;4786854;29;20047;-70
2022/06/04 11:54:30;;;;;;;14.82;1.77;;;;;;;;;;4802610;29;20042;-73
2022/06/04 11:57:11;;;;;;;8.85;1.98;;;;;;;;;;4802211;29;20065;-71
2022/06/04 11:59:50;;;;;;;3.90;1.48;;;;;;;;;;4801429;29;20404;-73
2022/06/04 12:02:40;;;;;;;3.05;1.85;;;;;;;;;;4801977;29;20058;-71
2022/06/04 12:05:22;;;;;;;4.63;1.75;;;;;;;;;;4801076;29;20565;-73
2022/06/04 12:07:55;;;;;;;33.40;3.53;;;;;;;;;;4801692;29;20054;-73
2022/06/04 12:10:42;;;;;;;1.60;1.38;;;;;;;;;;4802137;29;20050;-74
2022/06/04 12:13:18;;;;;;;2.33;1.67;;;;;;;;;;4801930;29;20051;-73
2022/06/04 12:16:22;;;;;;;6.03;1.48;;;;;;;;;;4785559;29;20063;-71
2022/06/04 12:18:59;;;;;;;3.75;1.20;;;;;;;;;;4798690;29;20046;-73
2022/06/04 12:24:23;;;;;;;;;;;;;;;;;;4799684;29;20066;-74
2022/06/04 12:27:07;;;;;;;2.42;1.25;;;;;;;;;;4802038;29;19948;-73
2022/06/04 12:29:55;;;;;;;27.05;4.05;;;;;;;;;;4802492;29;20415;-74
2022/06/04 12:32:30;;;;;;;5.18;1.10;;;;;;;;;;4801534;29;20042;-76
2022/06/04 12:35:17;;;;;;;2.35;1.08;;;;;;;;;;4801761;29;20073;-73
2022/06/04 12:37:59;;;;;;;4.90;1.33;;;;;;;;;;4801861;29;20053;-72
2022/06/04 12:40:33;;;;;;;2.25;1.25;;;;;;;;;;4802371;29;20055;-73
2022/06/04 12:43:18;;;;;;;11.63;1.50;;;;;;;;;;4802258;29;20054;-72
2022/06/04 12:46:05;;;;;;;6.95;1.45;;;;;;;;;;4801416;29;20058;-73
2022/06/04 12:49:11;;;;;;;11.50;1.70;;;;;;;;;;4801703;29;20067;-75
2022/06/04 12:51:47;;;;;;;2.10;1.38;;;;;;;;;;4802235;29;20073;-74
2022/06/04 12:54:17;;;;;;;6.35;1.30;;;;;;;;;;4801315;29;20081;-75
2022/06/04 12:56:55;;;;;;;5.55;2.03;;;;;;;;;;4801797;29;20058;-73
2022/06/04 12:59:46;;;;;;;13.73;1.98;;;;;;;;;;4801794;29;20062;-72
2022/06/04 13:02:36;;;;;;;9.45;1.95;;;;;;;;;;4802089;29;20055;-73
2022/06/04 13:05:14;;;;;;;8.00;1.63;;;;;;;;;;4800954;29;20059;-73
2022/06/04 13:08:02;;;;;;;1.35;1.05;;;;;;;;;;4802542;29;20077;-74
2022/06/04 13:10:47;;;;;;;1.13;0.95;;;;;;;;;;4801519;29;20510;-74
2022/06/04 13:13:29;;;;;;;11.10;1.77;;;;;;;;;;4801319;29;20055;-74
2022/06/04 13:16:04;;;;;;;15.00;2.58;;;;;;;;;;4785640;29;20055;-71
2022/06/04 13:18:40;;;;;;;2.53;1.05;;;;;;;;;;4801917;29;20055;-73
2022/06/04 13:21:17;;;;;;;3.25;1.05;;;;;;;;;;4801035;29;20392;-73
2022/06/04 13:23:55;;;;;;;7.07;1.42;;;;;;;;;;4801237;29;20069;-74
2022/06/04 13:26:44;;;;;;;8.73;1.38;;;;;;;;;;4801364;29;20401;-73
2022/06/04 13:29:31;;;;;;;2.60;1.30;;;;;;;;;;4801576;29;20103;-75
2022/06/04 13:32:12;;;;;;;5.47;1.55;;;;;;;;;;4800967;29;20054;-73
2022/06/04 13:34:44;;;;;;;1.40;1.30;;;;;;;;;;4801398;29;20507;-75
2022/06/04 13:37:35;;;;;;;4.35;1.30;;;;;;;;;;4801352;29;20086;-75
2022/06/04 13:40:26;;;;;;;9.48;1.88;;;;;;;;;;4800861;29;20055;-72
2022/06/04 13:42:58;;;;;;;4.65;1.08;;;;;;;;;;4800959;29;20057;-75
2022/06/04 13:45:40;;;;;;;3.67;1.00;;;;;;;;;;4800221;29;20058;-73
2022/06/04 13:48:28;;;;;;;;;;;;;;;;;;4801504;29;20055;-75
2022/06/04 13:50:59;;;;;;;4.25;1.40;;;;;;;;;;4801195;29;20385;-74
2022/06/04 13:53:31;;;;;;;2.75;1.10;;;;;;;;;;4800796;29;20051;-75
2022/06/04 13:56:07;;;;;;;3.90;1.48;;;;;;;;;;4801055;29;20059;-75
2022/06/04 13:58:41;;;;;;;6.30;2.67;;;;;;;;;;4785322;29;20511;-78
2022/06/04 14:01:33;;;;;;;8.93;1.52;;;;;;;;;;4783927;29;20062;-74
2022/06/04 14:07:11;;;;;;;8.63;1.10;;;;;;;;;;4796436;29;20063;-74
2022/06/04 14:09:54;;;;;;;2.78;1.20;;;;;;;;;;4782342;30;20051;-73
2022/06/04 14:12:32;;;;;;;11.02;3.20;;;;;;;;;;4782789;30;20411;-72
2022/06/04 14:15:40;;;;;;;15.60;2.10;;;;;;;;;;4782386;30;20047;-77
2022/06/04 14:18:22;;;;;;;9.23;1.83;;;;;;;;;;4782359;30;20070;-73
2022/06/04 14:21:07;;;;;;;3.72;0.85;;;;;;;;;;4782438;30;20785;-74
2022/06/04 14:23:45;;;;;;;7.43;1.00;;;;;;;;;;4782272;30;20450;-75
2022/06/04 14:26:47;;;;;;;4.05;2.58;;;;;;;;;;4782698;29;20508;-74
2022/06/04 14:29:42;;;;;;;4.88;2.80;;;;;;;;;;4781178;29;20062;-77
2022/06/04 14:32:49;;;;;;;15.27;2.15;;;;;;;;;;4781104;30;20063;-74
2022/06/04 14:35:33;;;;;;;4.15;1.75;;;;;;;;;;4781651;30;20063;-72
2022/06/04 14:38:16;;;;;;;5.72;1.25;;;;;;;;;;4781132;30;20055;-75
2022/06/04 14:41:21;;;;;;;4.55;1.00;;;;;;;;;;4781523;30;20736;-74
2022/06/04 14:44:15;;;;;;;15.50;1.48;;;;;;;;;;4761210;29;20093;-73
2022/06/04 14:47:28;;;;;;;3.50;1.00;;;;;;;;;;4781152;30;20058;-71
2022/06/04 14:50:38;;;;;;;17.75;1.10;;;;;;;;;;4749603;29;20071;-73
2022/06/04 14:53:10;;;;;;;6.22;1.08;;;;;;;;;;4742869;30;20064;-73
2022/06/04 14:56:07;;;;;;;7.63;1.00;;;;;;;;;;4777257;29;20452;-73
2022/06/04 14:59:38;;;;;;;1.58;0.73;;;;;;;;;;4781113;30;20059;-72
2022/06/04 15:02:29;;;;;;;1.98;0.70;;;;;;;;;;4708265;30;20064;-73
2022/06/04 15:05:00;;;;;;;5.05;1.00;;;;;;;;;;4710214;30;20536;-72
2022/06/04 15:07:47;;;;;;;24.30;1.75;;;;;;;;;;4777317;29;20082;-75
2022/06/04 15:10:32;;;;;;;11.43;1.85;;;;;;;;;;4799344;29;20054;-75
2022/06/04 15:13:25;;;;;;;2.55;0.95;;;;;;;;;;4799551;29;20055;-71
2022/06/04 15:16:05;;;;;;;3.22;0.90;;;;;;;;;;4798815;29;20555;-72
2022/06/04 15:19:22;;;;;;;2.00;0.80;;;;;;;;;;4799095;29;20051;-73
2022/06/04 15:22:03;;;;;;;0.98;0.47;;;;;;;;;;4784568;29;20058;-72
2022/06/04 15:25:09;;;;;;;3.63;0.88;;;;;;;;;;4799572;29;20047;-73
2022/06/04 15:27:59;;;;;;;1.23;0.70;;;;;;;;;;4799084;29;20401;-75
2022/06/04 15:33:57;;;;;;;3.28;0.88;;;;;;;;;;4798695;29;20081;-76
2022/06/04 15:36:48;;;;;;;2.20;0.60;;;;;;;;;;4799637;29;21111;-75
2022/06/04 15:39:28;;;;;;;1.27;0.90;;;;;;;;;;4798743;29;20061;-73
2022/06/04 15:42:38;;;;;;;0.80;0.70;;;;;;;;;;4783944;29;20067;-74
2022/06/04 15:45:34;;;;;;;6.63;1.17;;;;;;;;;;4798607;29;20051;-73
2022/06/04 15:48:10;;;;;;;3.47;2.55;;;;;;;;;;4798126;29;20047;-74
2022/06/04 15:56:30;;;;;;;2.45;0.75;;;;;;;;;;4797400;29;20411;-74
2022/06/04 15:59:11;;;;;;;0.77;0.60;;;;;;;;;;4796655;29;20538;-73
2022/06/04 16:02:13;;;;;;;1.55;0.77;;;;;;;;;;4779545;29;20051;-73
2022/06/04 16:05:05;;;;;;;1.60;0.60;;;;;;;;;;4796297;29;20051;-72
2022/06/04 16:08:04;;;;;;;10.38;1.10;;;;;;;;;;4779541;29;20059;-75
2022/06/04 16:10:39;;;;;;;1.23;0.60;;;;;;;;;;4782273;30;20603;-71
2022/06/04 16:13:22;;;;;;;1.92;0.77;;;;;;;;;;4781701;30;20051;-75
2022/06/04 16:16:17;;;;;;;3.85;1.00;;;;;;;;;;4782008;30;20070;-73
2022/06/04 16:19:21;;;;;;;0.82;0.60;;;;;;;;;;4781630;30;20424;-75
2022/06/04 16:22:12;;;;;;;1.23;0.70;;;;;;;;;;4782573;30;20050;-73
2022/06/04 16:25:10;;;;;;;3.10;0.85;;;;;;;;;;4767980;30;20534;-73
2022/06/04 16:27:40;;;;;;;4.28;0.93;;;;;;;;;;4760332;30;20082;-75